BVLO2: Caney River, Bartlesville, OK

                                SHEF ID:       BVLO2     Caney River above Coon Creek at
STATION TYPE:
Regulating: Stage = 13.00, Flow = 14009

PRECIP STAGE STAGE(2) RIV-FLOW BAT-LOAD
in ft ft cfs volt
Ccp-Rev Ccp-Rev Ccp-Rev Ccp-Rev Ccp-Rev
(America/Chicago)
03/14 00:00 0.00 3.44 ---- 210 12.65
03/14 01:00 0.00 3.54 ---- 277 12.65
03/14 02:00 0.00 3.62 ---- 338 12.65
03/14 03:00 0.00 3.68 ---- 390 12.65
03/14 04:00 0.00 3.73 ---- 435 12.65
03/14 05:00 0.00 3.77 ---- 473 12.65
03/14 06:00 0.00 3.81 ---- 513 12.57
03/14 07:00 0.00 3.82 ---- 523 12.57
03/14 08:00 0.00 3.83 ---- 533 12.57
03/14 09:00 0.00 3.84 ---- 544 12.65
03/14 10:00 0.00 3.84 ---- 544 13.92
03/14 11:00 0.00 3.84 ---- 544 14.08
03/14 12:00 0.00 3.84 ---- 544 13.68
03/14 13:00 0.00 3.83 ---- 533 13.68
03/14 14:00 0.00 3.83 ---- 533 13.68
03/14 15:00 0.00 3.81 ---- 513 13.60
03/14 16:00 0.00 3.81 ---- 513 13.29
03/14 17:00 0.00 3.81 ---- 513 13.29
03/14 18:00 0.00 3.82 ---- 523 13.29
03/14 19:00 0.00 3.86 ---- 566 13.21
03/14 20:00 0.00 3.86 ---- 566 12.97
03/14 21:00 0.00 3.86 ---- 566 12.73
03/14 22:00 0.00 3.86 ---- 566 12.73
03/14 23:00 0.00 3.85 ---- 555 12.73
Data processed at Sun 15Mar2026 04:14 GMT

NOTICE: If you are parsing this page

Please convert to using our Data API. Starting early 2026 we will be migrating to: https://water.usace.army.mil with modern pages rendered in JavaScript. When this migration completes you will no longer be able to scrape this page! CWMSDataAPI (CDA)

Timeseries IDs (TSIDs)

TSIDs used from left to right in the data table
BART.Precip-Inc.Total.1Hour.1Hour.Ccp-Rev
BART.Stage.Inst.1Hour.0.Ccp-Rev
BART.Stage-Alt.Inst.1Hour.0.Ccp-Rev
BART.Flow.Inst.1Hour.0.Ccp-Rev
BART.Volt-Battery Load.Inst.1Hour.0.Ccp-Rev

                            

All information presented herein is the property of the government of the United States of America and may be revised or deleted at any time without prior notice. Dissemination of this information without the expressed written consent of the Public Affairs Office, Tulsa District U.S. Army Corps of Engineers is strictly prohibited. These data are gathered electronically and, as presented, have NOT undergone any form of quality control. These data are NOT guaranteed to be valid or correct.